Latest Coastal Weather Observations for Adele Island

IDW60701

Issued at 9:53 pm WST Monday 4 May 2026 (issued every 10 minutes, with the page automatically refreshed every 10 minutes)

About coastal observations | Map of coastal stations | Coastal observations for WA | Marine services | Other Formats
Station Details ID: 200735 Name: ADELE ISLAND Lat: -15.51 Lon: 123.16 Height: 4.6 m
Data from the previous 72 hours. | See also: Recent months at Adele Island
Date/Time
WST
Wind Sea
Height
m
Swell Vis
km
Cloud Weather Temp
°C
Press
MSL
hPa
Rain since
9am
mm
Dir  Spd
kts
Gust
kts
Height
m
Period
s
Dir
04/09:30pm SSE 9 11 - - - - - - - 28.5 1012.4 -
04/09:00pm SSE 10 11 - - - - - - - 28.5 1012.5 -
04/08:30pm SE 9 10 - - - - - - - 28.5 1012.6 -
04/08:00pm SE 9 10 - - - - - - - 28.7 1012.4 -
04/07:30pm SE 9 10 - - - - - - - 28.6 1012.2 -
04/07:00pm SE 7 10 - - - - - - - 28.5 1011.8 -
04/06:30pm SE 8 9 - - - - - - - 28.4 1011.6 -
04/06:00pm SE 9 11 - - - - - - - 28.5 1011.4 -
04/05:30pm SE 10 11 - - - - - - - 29.0 1011.2 -
04/05:00pm SE 9 11 - - - - - - - 29.3 1010.9 -
04/04:30pm SE 12 14 - - - - - - - 29.9 1010.7 -
04/04:00pm SE 12 15 - - - - - - - 30.1 1010.5 -
04/03:30pm SSE 13 16 - - - - - - - 30.4 1010.5 -
04/03:00pm SSE 13 16 - - - - - - - 30.0 1010.3 -
04/02:30pm SSE 13 17 - - - - - - - 30.1 1010.2 -
04/02:00pm SSE 12 16 - - - - - - - 30.1 1010.4 -
04/01:30pm SE 12 15 - - - - - - - 29.7 1010.6 -
04/01:00pm SE 12 15 - - - - - - - 29.9 1011.0 -
04/12:30pm SE 13 17 - - - - - - - 30.3 1011.4 -
04/12:00pm SE 12 16 - - - - - - - 29.5 1011.6 -
04/11:30am SE 13 16 - - - - - - - 29.7 1012.3 -
04/11:00am SE 12 16 - - - - - - - 30.0 1012.6 -
04/10:30am SE 13 16 - - - - - - - 29.8 1013.1 -
04/10:00am SSE 14 18 - - - - - - - 29.6 1013.4 -
04/09:30am SSE 14 17 - - - - - - - 29.4 1013.5 -
04/09:00am SE 14 17 - - - - - - - 29.3 1013.3 -
04/08:30am SE 13 16 - - - - - - - 29.1 1013.1 -
04/08:00am SE 13 17 - - - - - - - 28.8 1012.9 -
04/07:30am SE 10 13 - - - - - - - 28.4 1012.8 -
04/07:00am SE 9 11 - - - - - - - 27.8 1012.6 -
04/06:30am SE 9 11 - - - - - - - 27.5 1012.4 -
04/06:00am SSE 3 9 - - - - - - - 27.3 1012.0 -
04/05:30am SSE 5 11 - - - - - - - 27.5 1011.6 -
04/05:00am S 1 2 - - - - - - - 27.8 1011.6 -
04/04:30am CALM 0 2 - - - - - - - 28.4 1011.5 -
04/04:00am CALM 0 3 - - - - - - - 28.6 1011.5 -
04/03:30am CALM 0 2 - - - - - - - 28.4 1011.7 -
04/03:00am CALM 0 2 - - - - - - - 28.1 1011.8 -
04/02:30am CALM 0 3 - - - - - - - 28.4 1011.5 -
04/02:00am CALM 0 2 - - - - - - - 28.5 1011.8 -
04/01:30am CALM 0 1 - - - - - - - 29.0 1011.9 -
04/01:00am CALM 0 2 - - - - - - - 29.0 1012.1 -
04/12:30am CALM 0 4 - - - - - - - 29.3 1012.4 -
04/12:00am CALM 0 3 - - - - - - - 29.2 1012.6 -
 
Date/Time
WST
Wind Sea
Height
m
Swell Vis
km
Cloud Weather Temp
°C
Press
MSL
hPa
Rain since
9am
mm
Dir  Spd
kts
Gust
kts
Height
m
Period
s
Dir
03/11:30pm CALM 0 3 - - - - - - - 29.2 1012.8 -
03/11:00pm CALM 0 2 - - - - - - - 28.9 1012.8 -
03/10:30pm CALM 0 1 - - - - - - - 28.8 1012.7 -
03/10:00pm CALM 0 3 - - - - - - - 28.6 1012.6 -
03/09:30pm SSW 3 3 - - - - - - - 28.6 1012.5 -
03/09:00pm SSW 1 3 - - - - - - - 28.5 1012.5 -
03/08:30pm SSW 1 4 - - - - - - - 28.1 1012.4 -
03/08:00pm CALM 0 3 - - - - - - - 28.0 1012.2 -
03/07:30pm SSW 2 4 - - - - - - - 28.5 1011.9 -
03/07:00pm CALM 0 3 - - - - - - - 28.6 1011.6 -
03/06:30pm CALM 0 1 - - - - - - - 28.8 1011.3 -
03/06:00pm NNW 3 5 - - - - - - - 28.7 1010.9 -
03/05:30pm CALM 0 1 - - - - - - - 28.9 1010.6 -
03/05:00pm NNW 2 3 - - - - - - - 29.3 1010.4 -
03/04:30pm NNW 4 5 - - - - - - - 29.7 1010.3 -
03/04:00pm NNW 2 5 - - - - - - - 29.8 1010.3 -
03/03:30pm NNW 4 6 - - - - - - - 30.2 1010.4 -
03/03:00pm NNE 4 6 - - - - - - - 30.3 1010.5 -
03/02:30pm NE 5 7 - - - - - - - 30.4 1010.6 -
03/02:00pm SSE 6 9 - - - - - - - 30.4 1010.8 -
03/01:30pm ESE 6 9 - - - - - - - 30.4 1011.0 -
03/01:00pm E 6 10 - - - - - - - 30.4 1011.3 -
03/12:30pm ESE 7 9 - - - - - - - 30.2 1011.6 -
03/12:00pm E 7 9 - - - - - - - 30.1 1011.9 -
03/11:30am E 7 9 - - - - - - - 30.3 1012.3 -
03/11:00am SSE 7 11 - - - - - - - 30.1 1012.8 -
03/10:30am SE 9 11 - - - - - - - 29.9 1013.2 -
03/10:00am SE 10 12 - - - - - - - 29.5 1013.5 -
03/09:30am SSE 11 14 - - - - - - - 30.0 1013.5 -
03/09:00am SSE 10 13 - - - - - - - 30.3 1013.5 -
03/08:30am SSE 10 13 - - - - - - - 29.8 1013.3 -
03/08:00am S 11 15 - - - - - - - 29.4 1013.1 -
03/07:30am SSE 7 9 - - - - - - - 29.0 1012.9 -
03/07:00am ESE 6 7 - - - - - - - 28.1 1012.6 -
03/06:30am SE 7 7 - - - - - - - 27.6 1012.3 -
03/06:00am SE 6 7 - - - - - - - 27.7 1011.9 -
03/05:30am S 7 7 - - - - - - - 28.0 1011.6 -
03/05:00am S 7 8 - - - - - - - 28.0 1011.3 -
03/04:30am S 7 7 - - - - - - - 28.4 1011.1 -
03/04:00am SSW 7 8 - - - - - - - 28.5 1011.1 -
03/03:30am SSW 7 8 - - - - - - - 28.5 1011.0 -
03/03:00am SSW 7 8 - - - - - - - 28.4 1011.0 -
03/02:30am SSW 6 7 - - - - - - - 28.2 1011.1 -
03/02:00am SSW 7 8 - - - - - - - 28.2 1011.0 -
03/01:30am SSW 8 9 - - - - - - - 28.3 1010.9 -
03/01:00am SSW 8 10 - - - - - - - 28.4 1011.0 -
03/12:30am SSW 9 11 - - - - - - - 28.7 1011.3 -
03/12:00am SSW 9 12 - - - - - - - 28.5 1011.3 -
 
Date/Time
WST
Wind Sea
Height
m
Swell Vis
km
Cloud Weather Temp
°C
Press
MSL
hPa
Rain since
9am
mm
Dir  Spd
kts
Gust
kts
Height
m
Period
s
Dir
02/11:30pm SSW 8 10 - - - - - - - 28.6 1011.5 -
02/11:00pm SSW 10 13 - - - - - - - 28.6 1011.7 -
02/10:30pm SSW 9 10 - - - - - - - 28.4 1011.8 -
02/10:00pm SSW 9 11 - - - - - - - 28.3 1011.7 -
02/09:30pm SSW 9 11 - - - - - - - 28.5 1011.9 -
02/09:00pm SSW 9 10 - - - - - - - 28.1 1011.9 -
02/08:30pm SSW 8 9 - - - - - - - 27.9 1011.7 -
02/08:00pm SSW 8 9 - - - - - - - 28.1 1011.5 -
02/07:30pm SSW 7 8 - - - - - - - 28.7 1011.1 -
02/07:00pm S 7 7 - - - - - - - 28.6 1010.7 -
02/06:30pm SE 6 6 - - - - - - - 28.6 1010.4 -
02/06:00pm SSE 6 7 - - - - - - - 28.4 1010.1 -
02/05:30pm SSE 6 7 - - - - - - - 28.3 1010.0 -
02/05:00pm NNW 4 5 - - - - - - - 28.7 1009.7 -
02/04:30pm S 7 9 - - - - - - - 29.1 1009.5 -
02/04:00pm S 8 11 - - - - - - - 29.3 1009.4 -
02/03:30pm S 9 11 - - - - - - - 29.2 1009.4 -
02/03:00pm SSW 9 11 - - - - - - - 29.6 1009.4 -
02/02:30pm S 9 11 - - - - - - - 29.5 1009.6 -
02/02:00pm S 8 10 - - - - - - - 29.5 1009.8 -
02/01:30pm SSE 9 12 - - - - - - - 29.7 1010.2 -
02/01:00pm SE 10 12 - - - - - - - 29.3 1010.4 -
02/12:30pm SE 9 11 - - - - - - - 29.3 1010.6 -
02/12:00pm E 10 12 - - - - - - - 29.9 1010.9 -
02/11:30am ESE 9 11 - - - - - - - 29.7 1011.2 -
02/11:00am E 7 9 - - - - - - - 29.0 1011.7 -
02/10:30am ESE 7 8 - - - - - - - 29.4 1012.2 -
02/10:00am E 7 10 - - - - - - - 29.0 1012.5 -
02/09:30am NNE 1 4 - - - - - - - 29.6 1012.7 -
02/09:00am CALM 0 0 - - - - - - - 30.1 1012.7 -
02/08:30am NNE 1 6 - - - - - - - 29.4 1012.5 -
02/08:00am CALM 0 1 - - - - - - - 29.4 1012.2 -
02/07:30am CALM 0 0 - - - - - - - 28.8 1012.2 -
02/07:00am CALM 0 0 - - - - - - - 28.7 1012.1 -
02/06:30am CALM 0 0 - - - - - - - 28.4 1011.8 -
02/06:00am CALM 0 4 - - - - - - - 28.0 1011.5 -
02/05:30am CALM 0 0 - - - - - - - 28.0 1011.2 -
02/05:00am CALM 0 0 - - - - - - - 28.2 1011.0 -
02/04:30am CALM 0 0 - - - - - - - 28.5 1011.0 -
02/04:00am NNE 3 4 - - - - - - - 28.4 1010.9 -
02/03:30am NNE 4 4 - - - - - - - 28.6 1010.8 -
02/03:00am E 5 5 - - - - - - - 28.6 1010.8 -
02/02:30am SSE 7 8 - - - - - - - 28.4 1010.8 -
02/02:00am SSE 7 8 - - - - - - - 28.7 1010.7 -
02/01:30am SSE 6 7 - - - - - - - 28.3 1010.8 -
02/01:00am S 7 8 - - - - - - - 28.2 1011.2 -
02/12:30am S 8 9 - - - - - - - 28.1 1011.6 -
02/12:00am S 7 8 - - - - - - - 27.8 1011.7 -
 
Date/Time
WST
Wind Sea
Height
m
Swell Vis
km
Cloud Weather Temp
°C
Press
MSL
hPa
Rain since
9am
mm
Dir  Spd
kts
Gust
kts
Height
m
Period
s
Dir
01/11:30pm S 7 8 - - - - - - - 28.6 1011.8 -
01/11:00pm S 7 8 - - - - - - - 28.4 1011.9 -
01/10:30pm S 8 9 - - - - - - - 27.9 1011.9 -
01/10:00pm S 7 9 - - - - - - - 28.1 1012.1 -

Other formats

Comma delimited format used in spreadsheet applications
http://www.bom.gov.au/fwo/IDW60701/IDW60701.94210.axf

JavaScript Object Notation format (JSON) in row-major order
http://www.bom.gov.au/fwo/IDW60701/IDW60701.94210.json

Data quality

Most of these data are generated automatically and are frequently updated. Quality checks on data are not normally performed. It is possible for incorrect values to appear. Refer to information at About Latest Weather Observations and please check the disclaimer before using these data.